Garden City, Mississippi
Current Conditions -  °F | °C
As of 10:55 PM on Saturday 22 Nov 2014 (Local Time) from KHEZ Reporting Station
Overcast Overcast  
Wind Chill: 63°   Ceiling: 1300
Heat Index: 63°   Visibility: 10mi
Dew Point: 57°   Wind: 13mph
Humidity: 82%   Direction: 140°SE
Pressure: 29.89"   Gusts: 21mph
Location:  31.4774°N, 91.0619°W
Report Text: KHEZ 230455Z AUTO 14011G18KT 10SM OVC013 17/14 A2989 RMK AO1
Loading
Personal Weather Stations






























Interactive Weather Map New forecast layout! Learn more

10-Day Weather Forecast

Advertisements
Track Severe Weather on mobile